Aeroporto :







RITROVATECI SU...

 
LOGIN :

Iscrizione | Disclaimer

   EN    FR    IT 

 









Sommario :    VFR   VFR Marginale   IFR   IFR Intensivo   IFR Molto Intensivo
Visibilità : 
Base nubi : 
>= 8 km
>= 3000ft
5 / 8 km
1000 / 3000 ft
1500m / 5 km
500 / 1000 ft
800 / 1500m
200 / 500 ft
< 800m
< 200 ft
Simboli :   Temporali  Nebbia  Neve Forte  Precipitazioni Forti  Vento > 20 kt






- Altitudine del aeroporto : 241 ft
- Codice IATA : CEF


KCEF - Westover ARB/Metropolitan

ULTIMO METAR :
  • 230256Z 35006KT 10SM FEW250 13/01 A2981 RMK AO2A SLP101 T01260013 57006

METARs OBSOLETI :
  • 230156Z 34007KT 10SM FEW250 13/01 A2982 RMK AO2A SLP104 T01310011
  • 230056Z 33010KT 10SM FEW250 14/01 A2983 RMK AO2A SLP108 T01380008

TAF TAF KCEF
Valido dal 22 a 21 ore il 24 a 03 ore UTC


222100Z 2221/2403 35010G15KT 9999 FEW150 BKN200 QNH2984INS
TEMPO 2221/2223 33015G25KT 520004
BECMG 2222/2223 33009KT 9999 SCT250 510053 QNH2979INS
BECMG 2313/2314 32010G15KT 9999 SCT040 QNH2977INS
TEMPO 2314/2323 30015G25KT 520004
BECMG 2322/2323 30009KT 9999 FEW040 FEW250 QNH2983INS TX26/2320Z TN07/2310Z LAST NO AMDS AFT 2303 NEXT 2313
FIR KZBW / America del Nord



MetMap, La meteo Aeronautica in un colpo d'occhio ! - Copyright ORBIFLY Dicembre 2007 - Disclaimer

ORBIFLY MET'MAP TEAM :

Programmazione e sviluppo : Alexandra Zaïnal
Concezione : Baudouin d'Aumeries
Aiuto per la programmazione : Marc-Olivier Méhu
Supporto tecnico e logistico : Manuel Goepfert
Aiuto per la traduzione : Arnaldo La Scala

Contatto : metmap@orbifly.com




FONTI E CREDITI :

   NOAA